createdAt,value
2018-12-21T00:01:37.464Z,8.05
2018-12-21T00:04:04.757Z,5.03
2018-12-21T00:06:32.073Z,4.85
2018-12-21T00:09:00.050Z,4.60
2018-12-21T00:11:27.541Z,4.08
2018-12-21T00:13:54.967Z,5.28
2018-12-21T00:16:22.310Z,5.20
2018-12-21T00:18:49.611Z,6.10
2018-12-21T00:21:21.854Z,5.22
2018-12-21T00:23:46.323Z,6.08
2018-12-21T00:26:13.705Z,5.62
2018-12-21T00:28:40.992Z,4.10
2018-12-21T00:31:14.188Z,7.60
2018-12-21T00:33:47.092Z,8.83
2018-12-21T00:36:20.105Z,2.83
2018-12-21T00:38:53.077Z,3.95
2018-12-21T00:41:19.897Z,3.67
2018-12-21T00:43:58.820Z,5.17
2018-12-21T00:46:31.653Z,4.78
2018-12-21T00:48:58.996Z,4.05
2018-12-21T00:51:30.193Z,3.17
2018-12-21T00:53:55.615Z,3.15
2018-12-21T00:56:22.909Z,4.67
2018-12-21T00:58:50.211Z,6.45
2018-12-21T01:01:17.727Z,5.28
2018-12-21T01:03:45.097Z,5.67
2018-12-21T01:06:12.540Z,5.95
2018-12-21T01:08:39.848Z,3.40
2018-12-21T01:11:07.146Z,6.30
2018-12-21T01:13:34.453Z,7.15
2018-12-21T01:16:01.755Z,9.80
2018-12-21T01:18:29.176Z,4.67
2018-12-21T01:20:57.080Z,4.78
2018-12-21T01:23:24.375Z,5.35
2018-12-21T01:25:52.791Z,4.45
2018-12-21T01:28:20.103Z,5.62
2018-12-21T01:30:47.395Z,5.80
2018-12-21T01:33:14.792Z,10.98
2018-12-21T01:35:42.307Z,3.95
2018-12-21T01:38:09.720Z,6.97
2018-12-21T01:40:37.126Z,5.03
2018-12-21T01:43:04.411Z,3.75
2018-12-21T01:45:31.704Z,5.35
2018-12-21T01:47:59.024Z,4.58
2018-12-21T01:50:26.402Z,4.70
2018-12-21T01:52:53.688Z,5.28
2018-12-21T01:55:20.997Z,5.87
2018-12-21T01:57:48.412Z,4.37
2018-12-21T02:00:15.720Z,3.52
2018-12-21T02:02:43.023Z,7.90
2018-12-21T02:05:10.441Z,4.60
2018-12-21T02:07:37.724Z,5.08
2018-12-21T02:10:05.696Z,5.33
2018-12-21T02:12:33.129Z,5.97
2018-12-21T02:15:00.432Z,7.00
2018-12-21T02:17:27.819Z,3.67
2018-12-21T02:19:55.260Z,4.03
2018-12-21T02:22:22.543Z,4.12
2018-12-21T02:24:49.849Z,4.80
2018-12-21T02:27:17.127Z,4.97
2018-12-21T02:29:44.457Z,3.75
2018-12-21T02:32:11.739Z,6.60
2018-12-21T02:34:39.097Z,4.67
2018-12-21T02:37:06.373Z,3.70
2018-12-21T02:39:33.668Z,5.05
2018-12-21T02:42:00.955Z,4.15
2018-12-21T02:44:28.236Z,6.22
2018-12-21T02:46:55.543Z,7.05
2018-12-21T02:49:22.833Z,3.77
2018-12-21T02:51:50.186Z,4.60
2018-12-21T02:54:17.503Z,5.87
2018-12-21T02:56:44.931Z,9.43
2018-12-21T02:59:12.350Z,3.77
2018-12-21T03:01:39.821Z,4.10
2018-12-21T03:04:07.112Z,4.60
2018-12-21T03:06:34.428Z,3.08
2018-12-21T03:09:01.969Z,3.67
2018-12-21T03:11:29.269Z,4.85
2018-12-21T03:13:56.618Z,3.65
2018-12-21T03:16:23.928Z,5.65
2018-12-21T03:18:51.305Z,4.35
2018-12-21T03:21:18.711Z,2.90
2018-12-21T03:23:46.055Z,11.50
2018-12-21T03:26:13.495Z,5.05
2018-12-21T03:28:40.789Z,5.40
2018-12-21T03:31:08.277Z,5.10
2018-12-21T03:33:35.569Z,4.70
2018-12-21T03:36:03.127Z,2.22
2018-12-21T03:38:30.420Z,4.45
2018-12-21T03:40:57.801Z,5.28
2018-12-21T03:43:25.097Z,7.47
2018-12-21T03:45:52.419Z,4.33
2018-12-21T03:48:19.702Z,3.25
2018-12-21T03:50:47.013Z,4.25
2018-12-21T03:53:14.333Z,4.22
2018-12-21T03:55:41.673Z,5.33
2018-12-21T03:58:08.960Z,3.75
2018-12-21T04:00:36.259Z,5.03
2018-12-21T04:03:03.552Z,7.33
2018-12-21T04:05:30.839Z,7.47
2018-12-21T04:07:58.190Z,3.30
2018-12-21T04:10:25.480Z,6.62
2018-12-21T04:12:52.783Z,5.25
2018-12-21T04:15:20.244Z,8.73
2018-12-21T04:17:47.549Z,6.10
2018-12-21T04:20:14.967Z,6.08
2018-12-21T04:22:42.578Z,3.27
2018-12-21T04:25:09.997Z,3.70
2018-12-21T04:27:38.088Z,4.12
2018-12-21T04:30:06.282Z,6.60
2018-12-21T04:32:33.569Z,3.30
2018-12-21T04:35:00.863Z,4.03
2018-12-21T04:37:28.290Z,5.37
2018-12-21T04:39:55.580Z,3.85
2018-12-21T04:42:22.872Z,4.10
2018-12-21T04:44:50.185Z,6.08
2018-12-21T04:47:17.513Z,4.15
2018-12-21T04:49:44.825Z,3.62
2018-12-21T04:52:12.112Z,5.37
2018-12-21T04:54:39.433Z,2.67
2018-12-21T04:57:06.863Z,3.80
2018-12-21T04:59:34.181Z,3.95
2018-12-21T05:02:01.500Z,4.65
2018-12-21T05:04:28.815Z,5.95
2018-12-21T05:06:56.118Z,4.65
2018-12-21T05:09:23.446Z,2.55
2018-12-21T05:11:50.739Z,5.08
2018-12-21T05:14:18.035Z,8.45
2018-12-21T05:16:45.315Z,4.35
2018-12-21T05:19:12.620Z,3.58
2018-12-21T05:21:39.927Z,3.70
2018-12-21T05:24:07.220Z,3.40
2018-12-21T05:26:34.504Z,5.33
2018-12-21T05:29:01.832Z,4.78
2018-12-21T05:31:29.132Z,3.15
2018-12-21T05:33:56.549Z,2.50
2018-12-21T05:36:23.857Z,4.10
2018-12-21T05:38:51.185Z,4.67
2018-12-21T05:41:18.468Z,4.33
2018-12-21T05:43:46.143Z,6.60
2018-12-21T05:46:13.889Z,4.08
2018-12-21T05:48:41.192Z,3.33
2018-12-21T05:51:08.490Z,5.62
2018-12-21T05:53:35.794Z,3.17
2018-12-21T05:56:03.209Z,2.65
2018-12-21T05:58:30.597Z,4.00
2018-12-21T06:00:57.878Z,2.98
2018-12-21T06:03:25.160Z,6.15
2018-12-21T06:05:52.484Z,11.83
2018-12-21T06:08:19.765Z,5.40
2018-12-21T06:10:47.064Z,2.75
2018-12-21T06:13:14.373Z,3.52
2018-12-21T06:15:41.693Z,6.10
2018-12-21T06:18:08.973Z,4.80
2018-12-21T06:20:36.273Z,10.32
2018-12-21T06:23:09.390Z,11.00
2018-12-21T06:25:32.908Z,3.87
2018-12-21T06:28:00.205Z,4.53
2018-12-21T06:30:27.505Z,5.30
2018-12-21T06:32:54.890Z,4.78
2018-12-21T06:35:22.189Z,4.60
2018-12-21T06:37:49.471Z,5.83
2018-12-21T06:40:16.769Z,3.35
2018-12-21T06:42:44.446Z,8.50
2018-12-21T06:45:11.766Z,2.95
2018-12-21T06:47:39.053Z,3.95
2018-12-21T06:50:06.657Z,6.70
2018-12-21T06:52:33.972Z,10.35
2018-12-21T06:55:01.283Z,3.33
2018-12-21T06:57:28.575Z,3.95
2018-12-21T06:59:55.897Z,3.62
2018-12-21T07:02:23.188Z,7.70
2018-12-21T07:04:50.483Z,8.90
2018-12-21T07:07:17.811Z,12.98
2018-12-21T07:09:45.135Z,15.72
2018-12-21T07:12:12.439Z,24.37
2018-12-21T07:14:39.746Z,18.30
2018-12-21T07:17:07.045Z,10.25
2018-12-21T07:19:34.336Z,4.17
2018-12-21T07:22:01.649Z,6.15
2018-12-21T07:24:28.936Z,8.13
2018-12-21T07:26:56.227Z,2.95
2018-12-21T07:29:23.514Z,6.90
2018-12-21T07:31:50.944Z,3.10
2018-12-21T07:34:18.234Z,4.90
2018-12-21T07:36:45.548Z,6.67
2018-12-21T07:39:12.837Z,12.20
2018-12-21T07:41:40.157Z,19.05
2018-12-21T07:44:07.526Z,3.75
2018-12-21T07:46:34.972Z,11.40
2018-12-21T07:49:02.297Z,6.30
2018-12-21T07:51:29.615Z,6.00
2018-12-21T07:53:56.924Z,5.15
2018-12-21T07:56:24.270Z,5.28
2018-12-21T07:58:57.092Z,3.42
2018-12-21T08:01:20.872Z,2.87
2018-12-21T08:03:48.176Z,2.87
2018-12-21T08:06:15.472Z,4.35
2018-12-21T08:08:42.845Z,5.87
2018-12-21T08:11:10.266Z,5.47
2018-12-21T08:13:37.567Z,5.47
2018-12-21T08:16:04.865Z,2.10
2018-12-21T08:18:32.151Z,2.85
2018-12-21T08:20:59.456Z,2.08
2018-12-21T08:23:26.840Z,1.57
2018-12-21T08:25:54.153Z,2.58
2018-12-21T08:28:21.461Z,1.40
2018-12-21T08:30:48.749Z,2.52
2018-12-21T08:33:16.039Z,4.33
2018-12-21T08:35:43.335Z,1.60
2018-12-21T08:38:10.616Z,3.10
2018-12-21T08:40:37.878Z,2.20
2018-12-21T08:43:05.189Z,2.27
2018-12-21T08:45:32.464Z,4.35
2018-12-21T08:47:59.759Z,1.70
2018-12-21T08:50:27.056Z,1.12
2018-12-21T08:52:54.356Z,1.45
2018-12-21T08:55:21.657Z,2.37
2018-12-21T08:57:48.971Z,2.77
2018-12-21T09:00:16.264Z,2.25
2018-12-21T09:02:43.548Z,2.17
2018-12-21T09:05:10.843Z,2.30
2018-12-21T09:07:38.220Z,6.33
2018-12-21T09:10:08.256Z,1.70
2018-12-21T09:12:35.560Z,6.20
2018-12-21T09:15:03.176Z,9.05
2018-12-21T09:17:30.464Z,2.12
2018-12-21T09:19:57.770Z,2.80
2018-12-21T09:22:25.105Z,2.92
2018-12-21T09:24:52.421Z,1.98
2018-12-21T09:27:19.736Z,3.35
2018-12-21T09:29:47.032Z,2.70
2018-12-21T09:32:14.328Z,2.77
2018-12-21T09:34:41.750Z,2.85
2018-12-21T09:37:09.382Z,1.32
2018-12-21T09:39:36.805Z,4.55
2018-12-21T09:42:04.151Z,1.10
2018-12-21T09:44:31.467Z,1.70
2018-12-21T09:46:58.765Z,1.55
2018-12-21T09:49:26.059Z,2.17
2018-12-21T09:51:53.423Z,2.00
2018-12-21T09:54:20.735Z,1.47
2018-12-21T09:56:48.025Z,1.40
2018-12-21T09:59:15.435Z,1.45
2018-12-21T10:01:42.727Z,2.37
2018-12-21T10:04:10.028Z,2.15
2018-12-21T10:06:37.315Z,1.27
2018-12-21T10:09:06.367Z,1.85
2018-12-21T10:11:33.705Z,3.77
2018-12-21T10:14:01.069Z,2.33
2018-12-21T10:16:28.365Z,1.70
2018-12-21T10:18:55.882Z,3.80
2018-12-21T10:21:23.202Z,2.52
2018-12-21T10:23:50.568Z,3.00
2018-12-21T10:26:17.863Z,1.47
2018-12-21T10:28:45.157Z,2.65
2018-12-21T10:31:12.612Z,1.77
2018-12-21T10:33:40.016Z,2.35
2018-12-21T10:36:07.316Z,1.70
2018-12-21T10:38:34.599Z,1.72
2018-12-21T10:41:01.920Z,3.27
2018-12-21T10:43:29.207Z,2.20
2018-12-21T10:45:56.652Z,1.45
2018-12-21T10:48:23.940Z,1.32
2018-12-21T10:50:51.270Z,1.62
2018-12-21T10:53:18.581Z,1.70
2018-12-21T10:55:45.879Z,1.57
2018-12-21T10:58:13.181Z,1.50
2018-12-21T11:00:40.488Z,1.30
2018-12-21T11:03:07.788Z,0.90
2018-12-21T11:05:35.214Z,1.90
2018-12-21T11:08:02.642Z,1.20
2018-12-21T11:10:30.012Z,1.42
2018-12-21T11:12:57.309Z,1.02
2018-12-21T11:15:24.604Z,1.52
2018-12-21T11:17:51.913Z,1.50
2018-12-21T11:20:19.330Z,1.10
2018-12-21T11:22:46.645Z,1.67
2018-12-21T11:25:13.980Z,1.95
2018-12-21T11:27:41.295Z,1.52
2018-12-21T11:30:08.824Z,3.05
2018-12-21T11:32:36.239Z,1.32
2018-12-21T11:35:04.001Z,1.10
2018-12-21T11:37:31.303Z,1.30
2018-12-21T11:39:58.620Z,1.67
2018-12-21T11:42:25.924Z,0.88
2018-12-21T11:44:53.244Z,1.40
2018-12-21T11:47:20.553Z,1.00
2018-12-21T11:49:47.854Z,1.25
2018-12-21T11:52:15.278Z,1.20
2018-12-21T11:54:44.390Z,1.60
2018-12-21T11:57:11.913Z,0.90
2018-12-21T11:59:44.884Z,2.20
2018-12-21T12:02:08.579Z,1.22
2018-12-21T12:04:35.972Z,1.30
2018-12-21T12:07:03.295Z,1.35
2018-12-21T12:09:30.590Z,1.15
2018-12-21T12:11:57.888Z,2.10
2018-12-21T12:14:25.188Z,1.30
2018-12-21T12:16:52.543Z,1.72
2018-12-21T12:19:19.867Z,1.02
2018-12-21T12:21:47.174Z,1.30
2018-12-21T12:24:14.459Z,1.07
2018-12-21T12:26:44.570Z,0.98
2018-12-21T12:29:11.280Z,1.05
2018-12-21T12:31:44.318Z,1.37
2018-12-21T12:34:11.547Z,0.78
2018-12-21T12:36:38.892Z,1.00
2018-12-21T12:39:06.281Z,0.90
2018-12-21T12:41:33.503Z,1.00
2018-12-21T12:44:06.542Z,0.95
2018-12-21T12:46:33.867Z,0.83
2018-12-21T12:49:01.138Z,1.37
2018-12-21T12:51:28.504Z,1.42
2018-12-21T12:53:55.796Z,1.17
2018-12-21T12:56:23.004Z,0.83
2018-12-21T12:58:50.261Z,1.10
2018-12-21T13:01:17.498Z,1.10
2018-12-21T13:03:44.857Z,1.05
2018-12-21T13:06:12.073Z,0.90
2018-12-21T13:08:39.323Z,0.93
2018-12-21T13:11:06.549Z,1.00
2018-12-21T13:13:33.781Z,1.32
2018-12-21T13:16:01.021Z,0.90
2018-12-21T13:18:28.271Z,0.90
2018-12-21T13:20:55.503Z,1.00
2018-12-21T13:23:22.742Z,0.82
2018-12-21T13:25:53.941Z,1.20
2018-12-21T13:28:21.182Z,0.90
2018-12-21T13:30:48.409Z,1.00
2018-12-21T13:33:15.732Z,1.00
2018-12-21T13:35:43.081Z,0.90
2018-12-21T13:38:10.357Z,0.95
2018-12-21T13:40:37.603Z,1.00
2018-12-21T13:43:04.838Z,0.80
2018-12-21T13:45:32.081Z,1.10
2018-12-21T13:47:59.317Z,1.00
2018-12-21T13:50:26.570Z,1.12
2018-12-21T13:52:53.791Z,1.17
2018-12-21T13:55:21.141Z,0.90
2018-12-21T13:57:48.360Z,0.90
2018-12-21T14:00:15.705Z,0.80
2018-12-21T14:02:42.945Z,2.27
2018-12-21T14:05:10.192Z,1.00
2018-12-21T14:07:37.465Z,1.20
2018-12-21T14:10:08.054Z,1.33
2018-12-21T14:12:35.281Z,1.30
2018-12-21T14:15:02.656Z,0.90
2018-12-21T14:17:29.902Z,1.27
2018-12-21T14:19:57.144Z,1.50
2018-12-21T14:22:24.382Z,0.90
2018-12-21T14:24:51.613Z,1.33
2018-12-21T14:27:18.849Z,0.97
2018-12-21T14:29:46.068Z,0.90
2018-12-21T14:32:13.285Z,0.70
2018-12-21T14:34:40.632Z,0.87
2018-12-21T14:37:08.029Z,0.90
2018-12-21T14:39:35.269Z,0.93
2018-12-21T14:42:02.612Z,1.00
2018-12-21T14:44:29.846Z,1.33
2018-12-21T14:46:57.110Z,1.50
2018-12-21T14:49:24.353Z,1.10
2018-12-21T14:51:51.749Z,1.40
2018-12-21T14:54:19.126Z,1.40
2018-12-21T14:56:46.391Z,1.13
2018-12-21T14:59:13.663Z,1.50
2018-12-21T15:01:41.048Z,1.50
2018-12-21T15:04:08.287Z,1.17
2018-12-21T15:06:35.549Z,1.30
2018-12-21T15:09:05.151Z,1.00
2018-12-21T15:11:32.643Z,1.37
2018-12-21T15:13:59.925Z,1.30
2018-12-21T15:16:27.227Z,1.37
2018-12-21T15:18:54.456Z,1.13
2018-12-21T15:21:21.728Z,1.40
2018-12-21T15:23:50.057Z,1.13
2018-12-21T15:26:17.360Z,1.50
2018-12-21T15:28:44.716Z,1.40
2018-12-21T15:31:12.052Z,1.43
2018-12-21T15:33:39.293Z,1.63
2018-12-21T15:36:06.590Z,1.00
2018-12-21T15:38:33.817Z,1.47
2018-12-21T15:41:01.150Z,1.63
2018-12-21T15:43:28.386Z,1.53
2018-12-21T15:45:55.605Z,1.50
2018-12-21T15:48:22.856Z,1.40
2018-12-21T15:50:50.275Z,1.20
2018-12-21T15:53:17.601Z,1.10
2018-12-21T15:55:44.949Z,1.10
2018-12-21T15:58:12.331Z,0.80
2018-12-21T16:00:39.576Z,1.00
2018-12-21T16:03:06.976Z,1.10
2018-12-21T16:05:34.248Z,1.20
2018-12-21T16:08:01.610Z,1.30
2018-12-21T16:10:28.846Z,1.00
2018-12-21T16:12:56.060Z,1.33
2018-12-21T16:15:23.453Z,1.10
2018-12-21T16:17:50.713Z,1.10
2018-12-21T16:20:18.011Z,1.60
2018-12-21T16:22:45.384Z,1.23
2018-12-21T16:25:12.600Z,1.10
2018-12-21T16:27:40.068Z,0.97
2018-12-21T16:30:10.058Z,1.27
2018-12-21T16:32:37.599Z,2.90
2018-12-21T16:35:05.059Z,1.50
2018-12-21T16:37:32.441Z,1.27
2018-12-21T16:39:59.677Z,1.60
2018-12-21T16:42:27.069Z,1.10
2018-12-21T16:44:54.726Z,1.40
2018-12-21T16:47:22.095Z,1.20
2018-12-21T16:49:49.494Z,1.30
2018-12-21T16:52:16.861Z,1.00
2018-12-21T16:54:44.089Z,1.20
2018-12-21T16:57:11.279Z,1.03
2018-12-21T16:59:38.577Z,1.00
2018-12-21T17:02:05.905Z,1.40
2018-12-21T17:04:33.220Z,1.50
2018-12-21T17:07:00.428Z,1.20
2018-12-21T17:09:27.754Z,1.00
2018-12-21T17:11:55.037Z,1.57
2018-12-21T17:14:22.280Z,1.00
2018-12-21T17:16:49.537Z,1.33
2018-12-21T17:19:20.047Z,2.00
2018-12-21T17:21:47.303Z,1.33
2018-12-21T17:24:14.570Z,1.30
2018-12-21T17:26:43.474Z,1.00
2018-12-21T17:29:10.721Z,1.00
2018-12-21T17:31:38.035Z,2.07
2018-12-21T17:34:05.246Z,2.53
2018-12-21T17:36:32.520Z,1.27
2018-12-21T17:38:59.730Z,1.70
2018-12-21T17:41:26.937Z,4.23
2018-12-21T17:43:54.161Z,1.17
2018-12-21T17:46:21.385Z,2.50
2018-12-21T17:48:48.593Z,1.40
2018-12-21T17:51:15.814Z,1.33
2018-12-21T17:53:43.137Z,1.20
2018-12-21T17:56:10.360Z,1.20
2018-12-21T17:58:37.562Z,3.30
2018-12-21T18:01:05.988Z,0.90
2018-12-21T18:03:38.733Z,1.40
2018-12-21T18:06:05.932Z,1.03
2018-12-21T18:08:33.269Z,1.13
2018-12-21T18:11:00.492Z,1.20
2018-12-21T18:13:27.705Z,1.10
2018-12-21T18:15:54.943Z,1.37
2018-12-21T18:18:25.300Z,1.10
2018-12-21T18:20:51.514Z,2.27
2018-12-21T18:23:18.969Z,1.13
2018-12-21T18:25:46.191Z,1.17
2018-12-21T18:28:18.223Z,1.20
2018-12-21T18:30:48.506Z,1.17
2018-12-21T18:33:18.229Z,1.20
2018-12-21T18:35:45.445Z,1.17
2018-12-21T18:38:17.911Z,1.10
2018-12-21T18:40:45.153Z,2.50
2018-12-21T18:43:12.377Z,1.20
2018-12-21T18:45:39.588Z,3.63
2018-12-21T18:48:06.923Z,2.13
2018-12-21T18:50:34.117Z,1.10
2018-12-21T18:53:01.311Z,2.47
2018-12-21T18:55:28.636Z,5.60
2018-12-21T18:57:55.854Z,1.33
2018-12-21T19:00:23.083Z,1.47
2018-12-21T19:02:50.307Z,1.40
2018-12-21T19:05:17.552Z,1.13
2018-12-21T19:07:44.904Z,0.93
2018-12-21T19:10:12.253Z,1.40
2018-12-21T19:12:39.516Z,1.30
2018-12-21T19:15:08.917Z,2.20
2018-12-21T19:17:36.220Z,1.20
2018-12-21T19:20:06.032Z,1.70
2018-12-21T19:22:33.493Z,1.90
2018-12-21T19:25:00.753Z,1.30
2018-12-21T19:27:28.041Z,1.10
2018-12-21T19:29:55.367Z,1.63
2018-12-21T19:32:22.567Z,1.27
2018-12-21T19:34:49.901Z,1.60
2018-12-21T19:37:17.149Z,1.30
2018-12-21T19:39:44.427Z,3.40
2018-12-21T19:42:11.645Z,1.57
2018-12-21T19:44:38.909Z,1.33
2018-12-21T19:47:06.127Z,1.67
2018-12-21T19:49:33.350Z,1.37
2018-12-21T19:52:00.687Z,2.03
2018-12-21T19:54:27.921Z,2.80
2018-12-21T19:57:04.421Z,1.40
2018-12-21T19:59:29.615Z,1.30
2018-12-21T20:01:57.075Z,1.67
2018-12-21T20:04:24.293Z,1.10
2018-12-21T20:06:51.703Z,1.20
2018-12-21T20:09:19.213Z,1.30
2018-12-21T20:11:46.441Z,1.43
2018-12-21T20:14:13.681Z,1.60
2018-12-21T20:16:41.034Z,2.00
2018-12-21T20:19:08.383Z,2.23
2018-12-21T20:21:35.612Z,2.33
2018-12-21T20:24:02.861Z,1.60
2018-12-21T20:26:30.589Z,1.57
2018-12-21T20:28:57.909Z,1.30
2018-12-21T20:31:25.139Z,1.70
2018-12-21T20:33:52.368Z,1.40
2018-12-21T20:36:19.752Z,1.70
2018-12-21T20:38:47.433Z,1.60
2018-12-21T20:41:15.041Z,4.03
2018-12-21T20:43:42.244Z,1.67
2018-12-21T20:46:09.452Z,1.40
2018-12-21T20:48:37.152Z,1.57
2018-12-21T20:51:04.412Z,4.10
2018-12-21T20:53:31.638Z,2.00
2018-12-21T20:55:58.908Z,1.40
2018-12-21T20:58:33.700Z,1.50
2018-12-21T21:01:00.943Z,1.40
2018-12-21T21:03:28.226Z,2.13
2018-12-21T21:05:55.568Z,1.27
2018-12-21T21:08:22.826Z,1.60
2018-12-21T21:10:50.108Z,2.60
2018-12-21T21:13:19.425Z,1.10
2018-12-21T21:15:46.565Z,1.30
2018-12-21T21:18:13.803Z,1.60
2018-12-21T21:20:41.065Z,1.60
2018-12-21T21:23:08.277Z,2.07
2018-12-21T21:25:35.526Z,1.33
2018-12-21T21:28:02.947Z,1.73
2018-12-21T21:30:33.241Z,1.47
2018-12-21T21:33:00.553Z,1.87
2018-12-21T21:35:27.760Z,2.30
2018-12-21T21:37:55.050Z,1.33
2018-12-21T21:40:22.309Z,1.60
2018-12-21T21:42:57.232Z,1.40
2018-12-21T21:45:18.881Z,1.53
2018-12-21T21:47:46.113Z,1.50
2018-12-21T21:50:13.357Z,2.40
2018-12-21T21:52:40.581Z,1.40
2018-12-21T21:55:08.020Z,1.50
2018-12-21T21:57:39.177Z,1.60
2018-12-21T22:00:07.745Z,2.00
2018-12-21T22:02:35.085Z,1.30
2018-12-21T22:05:02.409Z,1.63
2018-12-21T22:07:29.651Z,1.10
2018-12-21T22:09:56.964Z,2.17
2018-12-21T22:12:24.281Z,2.20
2018-12-21T22:14:51.607Z,1.67
2018-12-21T22:17:18.821Z,1.30
2018-12-21T22:19:46.160Z,1.30
2018-12-21T22:22:13.492Z,1.20
2018-12-21T22:24:40.741Z,1.40
2018-12-21T22:27:07.947Z,1.10
2018-12-21T22:29:35.252Z,3.63
2018-12-21T22:32:02.568Z,1.40
2018-12-21T22:34:29.845Z,4.50
2018-12-21T22:36:57.070Z,1.43
2018-12-21T22:39:24.263Z,1.63
2018-12-21T22:41:51.456Z,1.70
2018-12-21T22:44:18.667Z,1.50
2018-12-21T22:46:45.930Z,1.73
2018-12-21T22:49:13.193Z,1.63
2018-12-21T22:51:40.411Z,2.63
2018-12-21T22:54:07.654Z,1.93
2018-12-21T22:56:34.883Z,1.67
2018-12-21T22:59:02.128Z,1.33
2018-12-21T23:01:29.349Z,1.40
2018-12-21T23:03:56.592Z,1.87
2018-12-21T23:06:23.836Z,1.30
2018-12-21T23:08:51.062Z,1.50
2018-12-21T23:11:18.317Z,1.83
2018-12-21T23:13:45.594Z,1.40
2018-12-21T23:16:12.925Z,2.50
2018-12-21T23:18:40.112Z,1.30
2018-12-21T23:21:07.395Z,1.40
2018-12-21T23:23:34.596Z,2.10
2018-12-21T23:26:01.862Z,1.50
2018-12-21T23:28:29.065Z,1.47
2018-12-21T23:30:56.300Z,2.43
2018-12-21T23:33:23.504Z,1.80
2018-12-21T23:35:50.741Z,2.00
2018-12-21T23:38:17.994Z,1.63
2018-12-21T23:40:45.200Z,2.70
2018-12-21T23:43:12.456Z,1.33
2018-12-21T23:45:39.680Z,1.87
2018-12-21T23:48:06.887Z,2.00
2018-12-21T23:50:34.121Z,1.53
2018-12-21T23:53:01.388Z,3.43
2018-12-21T23:55:28.673Z,1.70
2018-12-21T23:57:55.972Z,2.40
